sensor_id;sensor_type;location;lat;lon;timestamp;temperature;humidity
4050;DHT22;2039;50.894;6.888;2022-10-30T00:00:32;16.10;99.90
4050;DHT22;2039;50.894;6.888;2022-10-30T00:02:59;16.20;99.90
4050;DHT22;2039;50.894;6.888;2022-10-30T00:05:24;16.20;99.90
4050;DHT22;2039;50.894;6.888;2022-10-30T00:07:50;16.20;99.90
4050;DHT22;2039;50.894;6.888;2022-10-30T00:10:17;16.20;99.90
4050;DHT22;2039;50.894;6.888;2022-10-30T00:12:43;16.20;99.90
4050;DHT22;2039;50.894;6.888;2022-10-30T00:15:09;16.20;99.90
4050;DHT22;2039;50.894;6.888;2022-10-30T00:17:35;16.20;99.90
4050;DHT22;2039;50.894;6.888;2022-10-30T00:20:01;16.20;99.90
4050;DHT22;2039;50.894;6.888;2022-10-30T00:22:27;16.10;99.90
4050;DHT22;2039;50.894;6.888;2022-10-30T00:24:52;16.10;99.90
4050;DHT22;2039;50.894;6.888;2022-10-30T00:27:18;16.10;99.90
4050;DHT22;2039;50.894;6.888;2022-10-30T00:29:44;16.10;99.90
4050;DHT22;2039;50.894;6.888;2022-10-30T00:32:09;16.10;99.90
4050;DHT22;2039;50.894;6.888;2022-10-30T00:34:35;16.20;99.90
4050;DHT22;2039;50.894;6.888;2022-10-30T00:37:01;16.20;99.90
4050;DHT22;2039;50.894;6.888;2022-10-30T00:39:26;16.20;99.90
4050;DHT22;2039;50.894;6.888;2022-10-30T00:41:52;16.10;99.90
4050;DHT22;2039;50.894;6.888;2022-10-30T00:44:42;16.20;99.90
4050;DHT22;2039;50.894;6.888;2022-10-30T00:47:20;16.10;99.90
4050;DHT22;2039;50.894;6.888;2022-10-30T00:49:56;16.10;99.90
4050;DHT22;2039;50.894;6.888;2022-10-30T00:52:25;16.10;99.90
4050;DHT22;2039;50.894;6.888;2022-10-30T00:54:54;16.10;99.90
4050;DHT22;2039;50.894;6.888;2022-10-30T00:57:21;16.20;99.90
4050;DHT22;2039;50.894;6.888;2022-10-30T00:59:47;16.20;99.90
4050;DHT22;2039;50.894;6.888;2022-10-30T01:02:14;16.30;99.90
4050;DHT22;2039;50.894;6.888;2022-10-30T01:04:41;16.20;99.90
4050;DHT22;2039;50.894;6.888;2022-10-30T01:07:11;16.20;99.90
4050;DHT22;2039;50.894;6.888;2022-10-30T01:09:38;16.20;99.90
4050;DHT22;2039;50.894;6.888;2022-10-30T01:12:05;16.20;99.90
4050;DHT22;2039;50.894;6.888;2022-10-30T01:14:33;16.10;99.90
4050;DHT22;2039;50.894;6.888;2022-10-30T01:36:37;15.90;99.90
4050;DHT22;2039;50.894;6.888;2022-10-30T01:39:12;15.90;99.90
4050;DHT22;2039;50.894;6.888;2022-10-30T01:41:38;16.00;99.90
4050;DHT22;2039;50.894;6.888;2022-10-30T01:44:22;16.00;99.90
4050;DHT22;2039;50.894;6.888;2022-10-30T01:46:58;16.00;99.90
4050;DHT22;2039;50.894;6.888;2022-10-30T01:49:38;16.00;99.90
4050;DHT22;2039;50.894;6.888;2022-10-30T01:55:06;15.70;99.90
4050;DHT22;2039;50.894;6.888;2022-10-30T01:57:59;15.70;99.90
4050;DHT22;2039;50.894;6.888;2022-10-30T02:00:27;15.70;99.90
4050;DHT22;2039;50.894;6.888;2022-10-30T02:02:53;15.70;99.90
4050;DHT22;2039;50.894;6.888;2022-10-30T02:05:27;15.50;99.90
4050;DHT22;2039;50.894;6.888;2022-10-30T02:07:54;15.60;99.90
4050;DHT22;2039;50.894;6.888;2022-10-30T02:10:20;15.60;99.90
4050;DHT22;2039;50.894;6.888;2022-10-30T02:12:46;15.60;99.90
4050;DHT22;2039;50.894;6.888;2022-10-30T02:15:12;15.60;99.90
4050;DHT22;2039;50.894;6.888;2022-10-30T02:17:37;15.60;99.90
4050;DHT22;2039;50.894;6.888;2022-10-30T02:20:05;15.60;99.90
4050;DHT22;2039;50.894;6.888;2022-10-30T02:22:31;15.50;99.90
4050;DHT22;2039;50.894;6.888;2022-10-30T02:24:57;15.50;99.90
4050;DHT22;2039;50.894;6.888;2022-10-30T02:27:23;15.40;99.90
4050;DHT22;2039;50.894;6.888;2022-10-30T02:29:48;15.40;99.90
4050;DHT22;2039;50.894;6.888;2022-10-30T02:32:14;15.40;99.90
4050;DHT22;2039;50.894;6.888;2022-10-30T02:34:39;15.40;99.90
4050;DHT22;2039;50.894;6.888;2022-10-30T02:37:07;15.30;99.90
4050;DHT22;2039;50.894;6.888;2022-10-30T02:39:33;15.30;99.90
4050;DHT22;2039;50.894;6.888;2022-10-30T02:41:59;15.30;99.90
4050;DHT22;2039;50.894;6.888;2022-10-30T02:44:26;15.30;99.90
4050;DHT22;2039;50.894;6.888;2022-10-30T02:46:52;15.30;99.90
4050;DHT22;2039;50.894;6.888;2022-10-30T02:49:17;15.40;99.90
4050;DHT22;2039;50.894;6.888;2022-10-30T02:51:43;15.40;99.90
4050;DHT22;2039;50.894;6.888;2022-10-30T02:54:09;15.30;99.90
4050;DHT22;2039;50.894;6.888;2022-10-30T02:56:34;15.10;99.90
4050;DHT22;2039;50.894;6.888;2022-10-30T02:59:00;15.20;99.90
4050;DHT22;2039;50.894;6.888;2022-10-30T03:01:25;15.20;99.90
4050;DHT22;2039;50.894;6.888;2022-10-30T03:03:54;15.20;99.90
4050;DHT22;2039;50.894;6.888;2022-10-30T03:06:19;15.20;99.90
4050;DHT22;2039;50.894;6.888;2022-10-30T03:08:45;15.20;99.90
4050;DHT22;2039;50.894;6.888;2022-10-30T03:11:15;15.20;99.90
4050;DHT22;2039;50.894;6.888;2022-10-30T03:13:43;15.20;99.90
4050;DHT22;2039;50.894;6.888;2022-10-30T03:16:17;15.10;99.90
4050;DHT22;2039;50.894;6.888;2022-10-30T03:18:43;14.90;99.90
4050;DHT22;2039;50.894;6.888;2022-10-30T03:21:13;14.90;99.90
4050;DHT22;2039;50.894;6.888;2022-10-30T03:23:39;14.70;99.90
4050;DHT22;2039;50.894;6.888;2022-10-30T03:26:04;14.80;99.90
4050;DHT22;2039;50.894;6.888;2022-10-30T03:28:31;14.90;99.90
4050;DHT22;2039;50.894;6.888;2022-10-30T03:31:02;14.90;99.90
4050;DHT22;2039;50.894;6.888;2022-10-30T03:33:28;14.90;99.90
4050;DHT22;2039;50.894;6.888;2022-10-30T03:35:54;14.90;99.90
4050;DHT22;2039;50.894;6.888;2022-10-30T03:38:20;14.90;99.90
4050;DHT22;2039;50.894;6.888;2022-10-30T03:40:45;14.80;99.90
4050;DHT22;2039;50.894;6.888;2022-10-30T03:43:11;14.70;99.90
4050;DHT22;2039;50.894;6.888;2022-10-30T03:45:37;14.60;99.90
4050;DHT22;2039;50.894;6.888;2022-10-30T03:48:04;14.70;99.90
4050;DHT22;2039;50.894;6.888;2022-10-30T03:50:30;14.70;99.90
4050;DHT22;2039;50.894;6.888;2022-10-30T03:52:57;14.80;99.90
4050;DHT22;2039;50.894;6.888;2022-10-30T03:55:23;14.70;99.90
4050;DHT22;2039;50.894;6.888;2022-10-30T03:57:49;14.70;99.90
4050;DHT22;2039;50.894;6.888;2022-10-30T04:00:16;14.80;99.90
4050;DHT22;2039;50.894;6.888;2022-10-30T04:02:49;14.80;99.90
4050;DHT22;2039;50.894;6.888;2022-10-30T04:05:16;14.70;99.90
4050;DHT22;2039;50.894;6.888;2022-10-30T04:07:42;14.70;99.90
4050;DHT22;2039;50.894;6.888;2022-10-30T04:10:09;14.70;99.90
4050;DHT22;2039;50.894;6.888;2022-10-30T04:12:35;14.70;99.90
4050;DHT22;2039;50.894;6.888;2022-10-30T04:15:00;14.70;99.90
4050;DHT22;2039;50.894;6.888;2022-10-30T04:17:26;14.70;99.90
4050;DHT22;2039;50.894;6.888;2022-10-30T04:19:52;14.70;99.90
4050;DHT22;2039;50.894;6.888;2022-10-30T04:22:18;14.60;99.90
4050;DHT22;2039;50.894;6.888;2022-10-30T04:24:43;14.60;99.90
4050;DHT22;2039;50.894;6.888;2022-10-30T04:27:10;14.60;99.90
4050;DHT22;2039;50.894;6.888;2022-10-30T04:29:37;14.60;99.90
4050;DHT22;2039;50.894;6.888;2022-10-30T04:32:03;14.60;99.90
4050;DHT22;2039;50.894;6.888;2022-10-30T04:34:30;14.60;99.90
4050;DHT22;2039;50.894;6.888;2022-10-30T04:36:55;14.60;99.90
4050;DHT22;2039;50.894;6.888;2022-10-30T04:39:21;14.50;99.90
4050;DHT22;2039;50.894;6.888;2022-10-30T04:41:47;14.40;99.90
4050;DHT22;2039;50.894;6.888;2022-10-30T04:44:12;14.40;99.90
4050;DHT22;2039;50.894;6.888;2022-10-30T04:46:38;14.40;99.90
4050;DHT22;2039;50.894;6.888;2022-10-30T04:49:04;14.40;99.90
4050;DHT22;2039;50.894;6.888;2022-10-30T04:51:29;14.40;99.90
4050;DHT22;2039;50.894;6.888;2022-10-30T04:53:55;14.30;99.90
4050;DHT22;2039;50.894;6.888;2022-10-30T04:56:21;14.20;99.90
4050;DHT22;2039;50.894;6.888;2022-10-30T04:58:47;14.20;99.90
4050;DHT22;2039;50.894;6.888;2022-10-30T05:01:12;14.20;99.90
4050;DHT22;2039;50.894;6.888;2022-10-30T05:03:38;14.30;99.90
4050;DHT22;2039;50.894;6.888;2022-10-30T05:06:10;14.30;99.90
4050;DHT22;2039;50.894;6.888;2022-10-30T05:08:37;14.20;99.90
4050;DHT22;2039;50.894;6.888;2022-10-30T05:11:04;14.20;99.90
4050;DHT22;2039;50.894;6.888;2022-10-30T05:13:30;14.10;99.90
4050;DHT22;2039;50.894;6.888;2022-10-30T05:15:56;14.00;99.90
4050;DHT22;2039;50.894;6.888;2022-10-30T05:18:21;13.90;99.90
4050;DHT22;2039;50.894;6.888;2022-10-30T05:20:47;13.90;99.90
4050;DHT22;2039;50.894;6.888;2022-10-30T05:23:13;14.00;99.90
4050;DHT22;2039;50.894;6.888;2022-10-30T05:25:38;14.00;99.90
4050;DHT22;2039;50.894;6.888;2022-10-30T05:28:05;13.90;99.90
4050;DHT22;2039;50.894;6.888;2022-10-30T05:30:32;13.90;99.90
4050;DHT22;2039;50.894;6.888;2022-10-30T05:32:59;13.90;99.90
4050;DHT22;2039;50.894;6.888;2022-10-30T05:35:26;14.00;99.90
4050;DHT22;2039;50.894;6.888;2022-10-30T05:37:52;14.10;99.90
4050;DHT22;2039;50.894;6.888;2022-10-30T05:40:17;14.00;99.90
4050;DHT22;2039;50.894;6.888;2022-10-30T05:42:47;13.90;99.90
4050;DHT22;2039;50.894;6.888;2022-10-30T05:45:14;13.70;99.90
4050;DHT22;2039;50.894;6.888;2022-10-30T05:47:40;13.70;99.90
4050;DHT22;2039;50.894;6.888;2022-10-30T05:50:06;13.70;99.90
4050;DHT22;2039;50.894;6.888;2022-10-30T05:52:32;13.80;99.90
4050;DHT22;2039;50.894;6.888;2022-10-30T05:54:58;13.80;99.90
4050;DHT22;2039;50.894;6.888;2022-10-30T05:57:26;13.80;99.90
4050;DHT22;2039;50.894;6.888;2022-10-30T05:59:52;13.90;99.90
4050;DHT22;2039;50.894;6.888;2022-10-30T06:02:17;13.80;99.90
4050;DHT22;2039;50.894;6.888;2022-10-30T06:04:43;13.80;99.90
4050;DHT22;2039;50.894;6.888;2022-10-30T06:07:09;13.70;99.90
4050;DHT22;2039;50.894;6.888;2022-10-30T06:09:35;13.60;99.90
4050;DHT22;2039;50.894;6.888;2022-10-30T06:12:01;13.60;99.90
4050;DHT22;2039;50.894;6.888;2022-10-30T06:14:27;13.70;99.90
4050;DHT22;2039;50.894;6.888;2022-10-30T06:16:52;13.70;99.90
4050;DHT22;2039;50.894;6.888;2022-10-30T06:19:18;13.70;99.90
4050;DHT22;2039;50.894;6.888;2022-10-30T06:21:44;13.70;99.90
4050;DHT22;2039;50.894;6.888;2022-10-30T06:24:20;13.50;99.90
4050;DHT22;2039;50.894;6.888;2022-10-30T06:26:46;13.50;99.90
4050;DHT22;2039;50.894;6.888;2022-10-30T06:29:12;13.60;99.90
4050;DHT22;2039;50.894;6.888;2022-10-30T06:31:37;13.70;99.90
4050;DHT22;2039;50.894;6.888;2022-10-30T06:34:06;13.70;99.90
4050;DHT22;2039;50.894;6.888;2022-10-30T06:36:31;13.80;99.90
4050;DHT22;2039;50.894;6.888;2022-10-30T06:38:57;13.80;99.90
4050;DHT22;2039;50.894;6.888;2022-10-30T06:41:23;13.80;99.90
4050;DHT22;2039;50.894;6.888;2022-10-30T06:43:48;13.90;99.90
4050;DHT22;2039;50.894;6.888;2022-10-30T06:46:14;13.80;99.90
4050;DHT22;2039;50.894;6.888;2022-10-30T06:48:39;13.90;99.90
4050;DHT22;2039;50.894;6.888;2022-10-30T06:51:05;13.90;99.90
4050;DHT22;2039;50.894;6.888;2022-10-30T06:53:31;13.90;99.90
4050;DHT22;2039;50.894;6.888;2022-10-30T06:55:58;13.90;99.90
4050;DHT22;2039;50.894;6.888;2022-10-30T06:58:25;13.90;99.90
4050;DHT22;2039;50.894;6.888;2022-10-30T07:00:51;13.90;99.90
4050;DHT22;2039;50.894;6.888;2022-10-30T07:03:17;13.90;99.90
4050;DHT22;2039;50.894;6.888;2022-10-30T07:05:43;13.90;99.90
4050;DHT22;2039;50.894;6.888;2022-10-30T07:08:08;13.90;99.90
4050;DHT22;2039;50.894;6.888;2022-10-30T07:10:34;14.00;99.90
4050;DHT22;2039;50.894;6.888;2022-10-30T07:13:00;14.00;99.90
4050;DHT22;2039;50.894;6.888;2022-10-30T07:15:26;14.00;99.90
4050;DHT22;2039;50.894;6.888;2022-10-30T07:18:01;14.00;99.90
4050;DHT22;2039;50.894;6.888;2022-10-30T07:20:29;14.00;99.90
4050;DHT22;2039;50.894;6.888;2022-10-30T07:22:56;14.00;99.90
4050;DHT22;2039;50.894;6.888;2022-10-30T07:25:21;14.00;99.90
4050;DHT22;2039;50.894;6.888;2022-10-30T07:27:51;14.00;99.90
4050;DHT22;2039;50.894;6.888;2022-10-30T07:30:22;14.00;99.90
4050;DHT22;2039;50.894;6.888;2022-10-30T07:33:02;14.00;99.90
4050;DHT22;2039;50.894;6.888;2022-10-30T07:35:28;14.00;99.90
4050;DHT22;2039;50.894;6.888;2022-10-30T07:37:55;13.90;99.90
4050;DHT22;2039;50.894;6.888;2022-10-30T07:40:21;14.00;99.90
4050;DHT22;2039;50.894;6.888;2022-10-30T07:42:47;13.90;99.90
4050;DHT22;2039;50.894;6.888;2022-10-30T07:45:13;14.00;99.90
4050;DHT22;2039;50.894;6.888;2022-10-30T07:47:42;14.00;99.90
4050;DHT22;2039;50.894;6.888;2022-10-30T07:50:09;13.90;99.90
4050;DHT22;2039;50.894;6.888;2022-10-30T07:52:35;13.90;99.90
4050;DHT22;2039;50.894;6.888;2022-10-30T07:55:01;13.90;99.90
4050;DHT22;2039;50.894;6.888;2022-10-30T07:57:29;14.00;99.90
4050;DHT22;2039;50.894;6.888;2022-10-30T07:59:55;14.10;99.90
4050;DHT22;2039;50.894;6.888;2022-10-30T08:02:20;14.20;99.90
4050;DHT22;2039;50.894;6.888;2022-10-30T08:04:46;14.10;99.90
4050;DHT22;2039;50.894;6.888;2022-10-30T08:07:11;14.20;99.90
4050;DHT22;2039;50.894;6.888;2022-10-30T08:09:37;14.20;99.90
4050;DHT22;2039;50.894;6.888;2022-10-30T08:12:03;14.30;99.90
4050;DHT22;2039;50.894;6.888;2022-10-30T08:14:29;14.30;99.90
4050;DHT22;2039;50.894;6.888;2022-10-30T08:16:54;14.40;99.90
4050;DHT22;2039;50.894;6.888;2022-10-30T08:19:20;14.40;99.90
4050;DHT22;2039;50.894;6.888;2022-10-30T08:21:46;14.40;99.90
4050;DHT22;2039;50.894;6.888;2022-10-30T08:24:11;14.50;99.90
4050;DHT22;2039;50.894;6.888;2022-10-30T08:26:37;14.60;99.90
4050;DHT22;2039;50.894;6.888;2022-10-30T08:29:02;14.60;99.90
4050;DHT22;2039;50.894;6.888;2022-10-30T08:31:28;14.60;99.90
4050;DHT22;2039;50.894;6.888;2022-10-30T08:33:54;14.70;99.90
4050;DHT22;2039;50.894;6.888;2022-10-30T08:36:19;14.80;99.90
4050;DHT22;2039;50.894;6.888;2022-10-30T08:38:45;14.80;99.90
4050;DHT22;2039;50.894;6.888;2022-10-30T08:41:11;14.90;99.90
4050;DHT22;2039;50.894;6.888;2022-10-30T08:43:36;14.90;99.90
4050;DHT22;2039;50.894;6.888;2022-10-30T08:46:03;14.90;99.90
4050;DHT22;2039;50.894;6.888;2022-10-30T08:48:28;15.00;99.90
4050;DHT22;2039;50.894;6.888;2022-10-30T08:50:57;15.00;99.90
4050;DHT22;2039;50.894;6.888;2022-10-30T08:53:25;15.10;99.90
4050;DHT22;2039;50.894;6.888;2022-10-30T08:55:51;15.00;99.90
4050;DHT22;2039;50.894;6.888;2022-10-30T08:58:17;15.00;99.90
4050;DHT22;2039;50.894;6.888;2022-10-30T09:00:42;15.10;99.90
4050;DHT22;2039;50.894;6.888;2022-10-30T09:03:08;15.10;99.90
4050;DHT22;2039;50.894;6.888;2022-10-30T09:05:35;15.10;99.90
4050;DHT22;2039;50.894;6.888;2022-10-30T09:08:01;15.20;99.90
4050;DHT22;2039;50.894;6.888;2022-10-30T09:10:27;15.30;99.90
4050;DHT22;2039;50.894;6.888;2022-10-30T09:12:57;15.30;99.90
4050;DHT22;2039;50.894;6.888;2022-10-30T09:15:24;15.40;99.90
4050;DHT22;2039;50.894;6.888;2022-10-30T09:17:58;15.50;99.90
4050;DHT22;2039;50.894;6.888;2022-10-30T09:20:24;15.50;99.90
4050;DHT22;2039;50.894;6.888;2022-10-30T09:22:50;15.60;99.90
4050;DHT22;2039;50.894;6.888;2022-10-30T09:25:15;15.70;99.90
4050;DHT22;2039;50.894;6.888;2022-10-30T09:27:41;15.80;99.90
4050;DHT22;2039;50.894;6.888;2022-10-30T09:30:07;15.80;99.90
4050;DHT22;2039;50.894;6.888;2022-10-30T09:32:33;16.00;99.90
4050;DHT22;2039;50.894;6.888;2022-10-30T09:34:59;16.00;99.90
4050;DHT22;2039;50.894;6.888;2022-10-30T09:37:24;16.10;99.90
4050;DHT22;2039;50.894;6.888;2022-10-30T09:39:51;16.20;99.90
4050;DHT22;2039;50.894;6.888;2022-10-30T09:42:21;16.30;99.90
4050;DHT22;2039;50.894;6.888;2022-10-30T09:50:52;16.60;99.90
4050;DHT22;2039;50.894;6.888;2022-10-30T09:56:28;16.90;99.90
4050;DHT22;2039;50.894;6.888;2022-10-30T10:01:56;17.00;99.90
4050;DHT22;2039;50.894;6.888;2022-10-30T10:04:50;17.20;99.90
4050;DHT22;2039;50.894;6.888;2022-10-30T10:07:21;17.40;99.90
4050;DHT22;2039;50.894;6.888;2022-10-30T10:09:50;17.60;99.90
4050;DHT22;2039;50.894;6.888;2022-10-30T10:12:29;17.60;99.90
4050;DHT22;2039;50.894;6.888;2022-10-30T10:14:59;17.50;99.90
4050;DHT22;2039;50.894;6.888;2022-10-30T10:17:34;17.60;99.90
4050;DHT22;2039;50.894;6.888;2022-10-30T10:20:03;17.70;99.90
4050;DHT22;2039;50.894;6.888;2022-10-30T10:22:40;18.00;99.90
4050;DHT22;2039;50.894;6.888;2022-10-30T10:25:12;18.10;99.90
4050;DHT22;2039;50.894;6.888;2022-10-30T10:30:54;18.20;99.90
4050;DHT22;2039;50.894;6.888;2022-10-30T10:39:23;18.40;99.90
4050;DHT22;2039;50.894;6.888;2022-10-30T10:41:57;18.50;99.90
4050;DHT22;2039;50.894;6.888;2022-10-30T10:44:53;18.70;99.90
4050;DHT22;2039;50.894;6.888;2022-10-30T10:50:17;19.20;99.90
4050;DHT22;2039;50.894;6.888;2022-10-30T10:52:55;19.20;99.90
4050;DHT22;2039;50.894;6.888;2022-10-30T10:55:32;19.20;99.90
4050;DHT22;2039;50.894;6.888;2022-10-30T10:58:06;19.30;99.40
4050;DHT22;2039;50.894;6.888;2022-10-30T11:00:33;19.40;96.50
4050;DHT22;2039;50.894;6.888;2022-10-30T11:05:59;19.60;91.10
4050;DHT22;2039;50.894;6.888;2022-10-30T11:08:30;19.50;89.30
4050;DHT22;2039;50.894;6.888;2022-10-30T11:11:04;19.70;91.60
4050;DHT22;2039;50.894;6.888;2022-10-30T11:13:35;20.00;80.90
4050;DHT22;2039;50.894;6.888;2022-10-30T11:18:43;20.10;69.50
4050;DHT22;2039;50.894;6.888;2022-10-30T11:21:14;20.10;66.60
4050;DHT22;2039;50.894;6.888;2022-10-30T11:23:43;20.30;64.90
4050;DHT22;2039;50.894;6.888;2022-10-30T11:26:31;20.40;67.80
4050;DHT22;2039;50.894;6.888;2022-10-30T11:29:14;20.40;60.70
4050;DHT22;2039;50.894;6.888;2022-10-30T11:31:43;20.40;61.10
4050;DHT22;2039;50.894;6.888;2022-10-30T11:34:22;20.50;55.40
4050;DHT22;2039;50.894;6.888;2022-10-30T11:36:51;20.50;52.40
4050;DHT22;2039;50.894;6.888;2022-10-30T11:39:28;20.60;44.40
4050;DHT22;2039;50.894;6.888;2022-10-30T11:41:57;20.70;46.50
4050;DHT22;2039;50.894;6.888;2022-10-30T11:47:01;20.60;42.30
4050;DHT22;2039;50.894;6.888;2022-10-30T11:52:17;20.70;36.00
4050;DHT22;2039;50.894;6.888;2022-10-30T11:54:46;20.70;38.40
4050;DHT22;2039;50.894;6.888;2022-10-30T11:57:40;20.70;34.60
4050;DHT22;2039;50.894;6.888;2022-10-30T12:00:30;20.70;36.20
4050;DHT22;2039;50.894;6.888;2022-10-30T12:02:57;20.70;39.60
4050;DHT22;2039;50.894;6.888;2022-10-30T12:10:44;20.80;37.20
4050;DHT22;2039;50.894;6.888;2022-10-30T12:13:19;20.80;34.50
4050;DHT22;2039;50.894;6.888;2022-10-30T12:15:47;20.80;36.70
4050;DHT22;2039;50.894;6.888;2022-10-30T12:18:20;21.00;39.00
4050;DHT22;2039;50.894;6.888;2022-10-30T12:20:51;21.00;24.80
4050;DHT22;2039;50.894;6.888;2022-10-30T12:23:22;21.10;27.50
4050;DHT22;2039;50.894;6.888;2022-10-30T12:25:52;21.20;25.80
4050;DHT22;2039;50.894;6.888;2022-10-30T12:28:23;21.20;22.30
4050;DHT22;2039;50.894;6.888;2022-10-30T12:33:49;21.20;24.30
4050;DHT22;2039;50.894;6.888;2022-10-30T12:36:25;21.20;22.10
4050;DHT22;2039;50.894;6.888;2022-10-30T12:39:08;21.20;18.60
4050;DHT22;2039;50.894;6.888;2022-10-30T12:41:44;21.10;23.90
4050;DHT22;2039;50.894;6.888;2022-10-30T12:44:20;21.00;22.50
4050;DHT22;2039;50.894;6.888;2022-10-30T12:46:53;21.00;27.50
4050;DHT22;2039;50.894;6.888;2022-10-30T12:49:30;21.10;28.00
4050;DHT22;2039;50.894;6.888;2022-10-30T12:54:57;21.10;25.80
4050;DHT22;2039;50.894;6.888;2022-10-30T12:57:27;21.20;25.70
4050;DHT22;2039;50.894;6.888;2022-10-30T12:59:57;21.20;27.30
4050;DHT22;2039;50.894;6.888;2022-10-30T13:10:43;21.40;30.30
4050;DHT22;2039;50.894;6.888;2022-10-30T13:13:33;21.40;26.90
4050;DHT22;2039;50.894;6.888;2022-10-30T13:16:02;21.40;32.30
4050;DHT22;2039;50.894;6.888;2022-10-30T13:18:30;21.40;25.70
4050;DHT22;2039;50.894;6.888;2022-10-30T13:43:03;21.40;18.10
4050;DHT22;2039;50.894;6.888;2022-10-30T13:48:33;21.30;19.00
4050;DHT22;2039;50.894;6.888;2022-10-30T13:54:01;21.20;27.40
4050;DHT22;2039;50.894;6.888;2022-10-30T13:56:32;21.10;29.90
4050;DHT22;2039;50.894;6.888;2022-10-30T14:04:17;21.00;26.20
4050;DHT22;2039;50.894;6.888;2022-10-30T14:09:40;20.90;33.30
4050;DHT22;2039;50.894;6.888;2022-10-30T14:15:29;20.90;32.70
4050;DHT22;2039;50.894;6.888;2022-10-30T14:20:57;21.00;34.70
4050;DHT22;2039;50.894;6.888;2022-10-30T14:23:32;20.90;31.90
4050;DHT22;2039;50.894;6.888;2022-10-30T14:28:38;20.80;33.70
4050;DHT22;2039;50.894;6.888;2022-10-30T14:31:07;20.80;36.10
4050;DHT22;2039;50.894;6.888;2022-10-30T14:36:16;20.70;39.00
4050;DHT22;2039;50.894;6.888;2022-10-30T14:38:52;20.50;42.00
4050;DHT22;2039;50.894;6.888;2022-10-30T14:41:30;20.40;49.40
4050;DHT22;2039;50.894;6.888;2022-10-30T14:44:18;20.40;50.40
4050;DHT22;2039;50.894;6.888;2022-10-30T14:49:34;20.20;62.10
4050;DHT22;2039;50.894;6.888;2022-10-30T14:52:14;20.30;61.20
4050;DHT22;2039;50.894;6.888;2022-10-30T14:55:01;20.20;56.30
4050;DHT22;2039;50.894;6.888;2022-10-30T15:06:03;20.20;62.70
4050;DHT22;2039;50.894;6.888;2022-10-30T15:14:01;20.20;59.50
4050;DHT22;2039;50.894;6.888;2022-10-30T15:16:29;20.10;61.90
4050;DHT22;2039;50.894;6.888;2022-10-30T15:19:03;20.10;63.10
4050;DHT22;2039;50.894;6.888;2022-10-30T15:21:32;20.10;64.70
4050;DHT22;2039;50.894;6.888;2022-10-30T15:24:00;20.10;54.80
4050;DHT22;2039;50.894;6.888;2022-10-30T15:26:35;20.00;56.20
4050;DHT22;2039;50.894;6.888;2022-10-30T15:29:03;20.00;59.30
4050;DHT22;2039;50.894;6.888;2022-10-30T15:31:30;19.90;65.60
4050;DHT22;2039;50.894;6.888;2022-10-30T15:33:56;19.80;58.30
4050;DHT22;2039;50.894;6.888;2022-10-30T15:36:32;19.80;54.80
4050;DHT22;2039;50.894;6.888;2022-10-30T15:39:10;19.70;53.70
4050;DHT22;2039;50.894;6.888;2022-10-30T15:44:20;19.60;53.00
4050;DHT22;2039;50.894;6.888;2022-10-30T15:46:48;19.50;54.20
4050;DHT22;2039;50.894;6.888;2022-10-30T15:49:19;19.50;57.80
4050;DHT22;2039;50.894;6.888;2022-10-30T15:51:46;19.40;58.80
4050;DHT22;2039;50.894;6.888;2022-10-30T15:54:15;19.30;57.30
4050;DHT22;2039;50.894;6.888;2022-10-30T15:56:44;19.20;55.40
4050;DHT22;2039;50.894;6.888;2022-10-30T15:59:18;19.20;59.30
4050;DHT22;2039;50.894;6.888;2022-10-30T16:01:46;19.20;66.80
4050;DHT22;2039;50.894;6.888;2022-10-30T16:04:24;19.10;62.20
4050;DHT22;2039;50.894;6.888;2022-10-30T16:06:52;18.90;70.20
4050;DHT22;2039;50.894;6.888;2022-10-30T16:09:19;18.90;71.90
4050;DHT22;2039;50.894;6.888;2022-10-30T16:11:46;18.80;80.40
4050;DHT22;2039;50.894;6.888;2022-10-30T16:14:16;18.70;83.20
4050;DHT22;2039;50.894;6.888;2022-10-30T16:16:43;18.60;85.40
4050;DHT22;2039;50.894;6.888;2022-10-30T16:19:25;18.50;84.30
4050;DHT22;2039;50.894;6.888;2022-10-30T16:21:53;18.40;89.80
4050;DHT22;2039;50.894;6.888;2022-10-30T16:24:22;18.40;91.80
4050;DHT22;2039;50.894;6.888;2022-10-30T16:27:13;18.30;92.60
4050;DHT22;2039;50.894;6.888;2022-10-30T16:29:39;18.30;90.90
4050;DHT22;2039;50.894;6.888;2022-10-30T16:32:12;18.30;91.30
4050;DHT22;2039;50.894;6.888;2022-10-30T16:34:40;18.20;92.20
4050;DHT22;2039;50.894;6.888;2022-10-30T16:37:14;18.20;91.70
4050;DHT22;2039;50.894;6.888;2022-10-30T16:39:42;18.10;93.00
4050;DHT22;2039;50.894;6.888;2022-10-30T16:42:18;18.10;93.80
4050;DHT22;2039;50.894;6.888;2022-10-30T16:44:45;18.00;94.30
4050;DHT22;2039;50.894;6.888;2022-10-30T16:49:48;18.00;95.50
4050;DHT22;2039;50.894;6.888;2022-10-30T16:52:15;17.90;96.40
4050;DHT22;2039;50.894;6.888;2022-10-30T16:55:03;17.90;95.60
4050;DHT22;2039;50.894;6.888;2022-10-30T16:57:34;17.80;94.80
4050;DHT22;2039;50.894;6.888;2022-10-30T17:00:01;17.80;94.30
4050;DHT22;2039;50.894;6.888;2022-10-30T17:02:36;17.80;94.10
4050;DHT22;2039;50.894;6.888;2022-10-30T17:05:28;17.70;92.90
4050;DHT22;2039;50.894;6.888;2022-10-30T17:10:41;17.70;93.90
4050;DHT22;2039;50.894;6.888;2022-10-30T17:15:55;17.60;94.10
4050;DHT22;2039;50.894;6.888;2022-10-30T17:18:29;17.60;93.20
4050;DHT22;2039;50.894;6.888;2022-10-30T17:21:20;17.60;93.40
4050;DHT22;2039;50.894;6.888;2022-10-30T17:23:52;17.60;93.90
4050;DHT22;2039;50.894;6.888;2022-10-30T17:26:19;17.50;95.20
4050;DHT22;2039;50.894;6.888;2022-10-30T17:28:45;17.50;95.20
4050;DHT22;2039;50.894;6.888;2022-10-30T17:33:47;17.40;95.00
4050;DHT22;2039;50.894;6.888;2022-10-30T17:36:27;17.40;95.10
4050;DHT22;2039;50.894;6.888;2022-10-30T17:38:53;17.40;94.90
4050;DHT22;2039;50.894;6.888;2022-10-30T17:41:19;17.40;95.20
4050;DHT22;2039;50.894;6.888;2022-10-30T17:43:50;17.40;95.00
4050;DHT22;2039;50.894;6.888;2022-10-30T17:46:16;17.30;95.10
4050;DHT22;2039;50.894;6.888;2022-10-30T17:48:42;17.30;95.00
4050;DHT22;2039;50.894;6.888;2022-10-30T17:51:15;17.30;95.60
4050;DHT22;2039;50.894;6.888;2022-10-30T17:53:41;17.30;96.00
4050;DHT22;2039;50.894;6.888;2022-10-30T17:56:27;17.30;96.20
4050;DHT22;2039;50.894;6.888;2022-10-30T17:58:53;17.20;96.90
4050;DHT22;2039;50.894;6.888;2022-10-30T18:01:21;17.20;96.50
4050;DHT22;2039;50.894;6.888;2022-10-30T18:03:49;17.20;97.10
4050;DHT22;2039;50.894;6.888;2022-10-30T18:06:17;17.10;98.80
4050;DHT22;2039;50.894;6.888;2022-10-30T18:08:43;17.10;99.40
4050;DHT22;2039;50.894;6.888;2022-10-30T18:11:11;17.10;99.90
4050;DHT22;2039;50.894;6.888;2022-10-30T18:13:37;17.00;99.90
4050;DHT22;2039;50.894;6.888;2022-10-30T18:16:03;17.00;99.90
4050;DHT22;2039;50.894;6.888;2022-10-30T18:18:28;16.90;99.90
4050;DHT22;2039;50.894;6.888;2022-10-30T18:20:54;17.00;99.90
4050;DHT22;2039;50.894;6.888;2022-10-30T18:23:22;17.00;99.90
4050;DHT22;2039;50.894;6.888;2022-10-30T18:25:49;17.00;99.90
4050;DHT22;2039;50.894;6.888;2022-10-30T18:28:15;17.00;99.90
4050;DHT22;2039;50.894;6.888;2022-10-30T18:30:46;17.00;99.90
4050;DHT22;2039;50.894;6.888;2022-10-30T18:33:13;17.00;99.90
4050;DHT22;2039;50.894;6.888;2022-10-30T18:35:39;17.00;99.90
4050;DHT22;2039;50.894;6.888;2022-10-30T18:38:05;17.00;99.90
4050;DHT22;2039;50.894;6.888;2022-10-30T18:40:31;17.00;99.90
4050;DHT22;2039;50.894;6.888;2022-10-30T18:42:57;17.00;99.90
4050;DHT22;2039;50.894;6.888;2022-10-30T18:47:52;16.90;99.90
4050;DHT22;2039;50.894;6.888;2022-10-30T18:50:20;16.90;99.90